Hovedside
METAR-TAF:

METAR-TAF

Lufthavner :

Craiova, Romania

breddegrad: 44-14N, lengdegrad: 023-52E, høyde over havet: 192 m

Gjeldene værobservasjon

Denne rapporten ble laget for 40 minutter siden, klokken 05:00 UTC
Vind 1 kt fra skiftende retning
Temperatur 22°C
Luftfuktighet 83%
Trykk 1009 hPa
Sikt 10 km eller mer
ingen skyer under 1500 m og ingen bygeskyer

METAR: LRCV 220500Z VRB01KT CAVOK 22/19 Q1009

Tid: 08:40 (05:40 UTC)

Varsel

Denne rapporten ble laget for 3 timer og 40 minutter siden, klokken 02:00 UTC
Varsel gyldig fra 22. klokken 03 UTC til 22. klokken 12 UTC
Vind 6 kt fra Nordvest
Sikt 10 km eller mer
ingen skyer under 1500 m og ingen bygeskyer

TAF: LRCV 220200Z 2203/2212 32006KT CAVOK

Værobservasjoner og værvarsel for over 4000 flyplasser (METAR- og TAF-rapporter).

Tilgjengelige stasjoner er representert av de røde og gule prikkene på kartet.

Hold musepekeren over prikken for å se navnet på stasjonen.

Klikk så for å se værobservasjoner og -varsler.

For å forandre kartet kan du klikke på den grønne knappen med svart kryss for å zoome inn, på den grønne knappen med strek for å zoome ut, eller på de grønne pilene for å se tilstøtende kart.


METAR-TAF: